createdAt,value
2023-03-27T00:13:50.138Z,2.77
2023-03-27T00:28:50.504Z,2.85
2023-03-27T00:43:50.623Z,2.59
2023-03-27T00:58:50.746Z,2.53
2023-03-27T01:13:50.833Z,2.57
2023-03-27T01:28:51.057Z,2.60
2023-03-27T01:43:51.456Z,2.63
2023-03-27T01:58:52.098Z,2.64
2023-03-27T02:13:51.739Z,2.14
2023-03-27T02:28:52.302Z,1.88
2023-03-27T02:43:52.442Z,1.47
2023-03-27T02:58:52.590Z,1.18
2023-03-27T03:13:52.207Z,1.06
2023-03-27T03:29:00.947Z,1.05
2023-03-27T03:43:57.451Z,0.53
2023-03-27T03:58:57.538Z,0.31
2023-03-27T04:13:57.647Z,-0.07
2023-03-27T04:28:57.742Z,-0.28
2023-03-27T04:43:58.290Z,-0.42
2023-03-27T04:58:58.466Z,-0.57
2023-03-27T05:13:58.580Z,-0.80
2023-03-27T05:28:58.689Z,-0.60
2023-03-27T05:43:58.788Z,0.28
2023-03-27T05:58:59.298Z,2.56
2023-03-27T06:13:58.988Z,4.08
2023-03-27T06:28:59.559Z,3.88
2023-03-27T06:43:59.570Z,3.43
2023-03-27T06:58:59.233Z,5.91
2023-03-27T07:13:59.370Z,6.99
2023-03-27T07:29:00.602Z,8.28
2023-03-27T07:44:00.504Z,7.34
2023-03-27T07:59:00.578Z,7.97
2023-03-27T08:14:00.680Z,8.58
2023-03-27T08:29:00.750Z,8.20
2023-03-27T08:44:00.865Z,8.59
2023-03-27T08:59:01.011Z,8.48
2023-03-27T09:14:01.069Z,9.02
2023-03-27T09:29:01.126Z,9.66
2023-03-27T09:44:01.640Z,9.42
2023-03-27T09:59:01.289Z,9.53
2023-03-27T10:14:01.410Z,8.98
2023-03-27T10:29:01.561Z,10.14
2023-03-27T10:44:01.997Z,10.33
2023-03-27T10:59:01.653Z,10.52
2023-03-27T11:14:01.754Z,10.56
2023-03-27T11:29:02.299Z,11.32
2023-03-27T11:44:01.944Z,11.51
2023-03-27T11:59:02.401Z,12.67
2023-03-27T12:14:03.414Z,13.08
2023-03-27T12:29:22.700Z,14.18
2023-03-27T12:44:10.243Z,11.19
2023-03-27T12:59:10.325Z,10.17
2023-03-27T13:14:10.833Z,8.86
2023-03-27T13:29:10.528Z,7.93
2023-03-27T13:44:11.106Z,10.22
2023-03-27T13:59:11.572Z,13.32
2023-03-27T14:14:11.241Z,15.90
2023-03-27T14:29:11.764Z,15.74
2023-03-27T14:44:11.384Z,16.02
2023-03-27T14:59:11.892Z,16.39
2023-03-27T15:14:11.590Z,13.33
2023-03-27T15:29:11.681Z,11.07
2023-03-27T15:44:12.243Z,8.94
2023-03-27T15:59:12.816Z,6.80
2023-03-27T16:14:13.318Z,6.69
2023-03-27T16:29:13.022Z,5.97
2023-03-27T16:44:13.081Z,5.46
2023-03-27T16:59:13.599Z,5.03
2023-03-27T17:14:13.276Z,4.88
2023-03-27T17:29:13.823Z,4.45
2023-03-27T17:44:13.476Z,4.00
2023-03-27T17:59:13.538Z,3.52
2023-03-27T18:14:14.138Z,3.21
2023-03-27T18:29:13.790Z,3.50
2023-03-27T18:44:13.880Z,3.13
2023-03-27T18:59:13.951Z,3.13
2023-03-27T19:14:14.098Z,2.89
2023-03-27T19:29:14.224Z,2.89
2023-03-27T19:44:14.307Z,2.74
2023-03-27T19:59:20.830Z,2.95
2023-03-27T20:14:19.574Z,2.64
2023-03-27T20:29:19.577Z,2.67
2023-03-27T20:44:19.723Z,2.60
2023-03-27T20:59:20.205Z,2.72
2023-03-27T21:14:19.931Z,2.25
2023-03-27T21:29:20.081Z,1.99
2023-03-27T21:44:20.131Z,1.88
2023-03-27T21:59:20.234Z,1.86
2023-03-27T22:14:20.374Z,2.05
2023-03-27T22:29:20.451Z,2.05
2023-03-27T22:44:20.600Z,2.28
2023-03-27T22:59:20.669Z,2.39
2023-03-27T23:14:20.775Z,2.25
2023-03-27T23:29:20.879Z,2.35
2023-03-27T23:44:20.989Z,1.51
2023-03-27T23:59:21.065Z,0.96
